createdAt,value
2017-09-10T00:01:25.934Z,9.70
2017-09-10T00:03:54.204Z,9.50
2017-09-10T00:06:22.499Z,9.08
2017-09-10T00:08:50.763Z,10.92
2017-09-10T00:11:19.034Z,10.16
2017-09-10T00:13:47.319Z,10.04
2017-09-10T00:16:15.589Z,10.48
2017-09-10T00:18:45.147Z,9.48
2017-09-10T00:21:15.347Z,10.24
2017-09-10T00:23:44.161Z,10.06
2017-09-10T00:26:12.971Z,8.92
2017-09-10T00:28:41.228Z,9.04
2017-09-10T00:31:09.511Z,9.64
2017-09-10T00:33:37.768Z,9.36
2017-09-10T00:36:06.080Z,9.08
2017-09-10T00:38:34.360Z,9.20
2017-09-10T00:41:02.688Z,9.02
2017-09-10T00:43:30.947Z,7.86
2017-09-10T00:45:59.255Z,9.28
2017-09-10T00:48:27.507Z,8.54
2017-09-10T00:50:55.766Z,9.66
2017-09-10T00:53:24.053Z,8.56
2017-09-10T00:55:52.352Z,8.86
2017-09-10T00:58:19.845Z,8.84
2017-09-10T01:00:48.145Z,8.26
2017-09-10T01:03:16.399Z,9.20
2017-09-10T01:05:44.656Z,8.46
2017-09-10T01:08:13.004Z,7.76
2017-09-10T01:10:41.273Z,8.42
2017-09-10T01:13:09.532Z,9.38
2017-09-10T01:15:37.811Z,9.10
2017-09-10T01:18:06.058Z,8.82
2017-09-10T01:20:34.336Z,9.54
2017-09-10T01:23:02.635Z,9.52
2017-09-10T01:25:30.891Z,8.86
2017-09-10T01:27:59.151Z,9.14
2017-09-10T01:30:27.439Z,9.24
2017-09-10T01:32:55.700Z,9.04
2017-09-10T01:35:23.995Z,9.98
2017-09-10T01:37:52.247Z,10.02
2017-09-10T01:40:20.495Z,8.50
2017-09-10T01:42:48.774Z,7.54
2017-09-10T01:45:17.022Z,8.34
2017-09-10T01:47:45.314Z,8.62
2017-09-10T01:50:13.575Z,7.66
2017-09-10T01:52:41.828Z,8.52
2017-09-10T01:55:10.109Z,8.16
2017-09-10T01:57:39.331Z,7.24
2017-09-10T02:00:07.617Z,8.90
2017-09-10T02:02:36.767Z,8.52
2017-09-10T02:05:05.668Z,7.86
2017-09-10T02:07:33.927Z,8.56
2017-09-10T02:10:02.223Z,8.02
2017-09-10T02:12:30.485Z,8.36
2017-09-10T02:14:58.738Z,8.10
2017-09-10T02:17:27.023Z,7.64
2017-09-10T02:19:55.283Z,7.70
2017-09-10T02:22:23.539Z,7.48
2017-09-10T02:24:51.827Z,7.80
2017-09-10T02:27:20.071Z,6.72
2017-09-10T02:29:48.323Z,7.56
2017-09-10T02:32:16.606Z,7.74
2017-09-10T02:34:44.859Z,7.18
2017-09-10T02:37:14.579Z,7.58
2017-09-10T02:39:44.003Z,7.68
2017-09-10T02:42:12.960Z,7.58
2017-09-10T02:44:41.212Z,7.38
2017-09-10T02:47:09.483Z,7.78
2017-09-10T02:49:37.767Z,7.48
2017-09-10T02:52:06.064Z,6.88
2017-09-10T02:54:34.323Z,7.34
2017-09-10T02:57:02.607Z,7.68
2017-09-10T02:59:30.862Z,7.28
2017-09-10T03:01:59.138Z,7.54
2017-09-10T03:04:27.398Z,7.76
2017-09-10T03:06:55.686Z,7.20
2017-09-10T03:09:23.938Z,7.78
2017-09-10T03:11:52.243Z,7.32
2017-09-10T03:14:20.495Z,7.72
2017-09-10T03:16:48.750Z,8.00
2017-09-10T03:19:17.042Z,7.44
2017-09-10T03:21:52.534Z,8.82
2017-09-10T03:24:20.818Z,8.94
2017-09-10T03:26:49.114Z,7.50
2017-09-10T03:29:17.373Z,7.80
2017-09-10T03:31:45.650Z,7.24
2017-09-10T03:34:15.127Z,7.44
2017-09-10T03:36:43.411Z,7.24
2017-09-10T03:39:11.707Z,7.38
2017-09-10T03:41:39.959Z,7.48
2017-09-10T03:44:08.216Z,7.38
2017-09-10T03:46:37.666Z,7.22
2017-09-10T03:49:06.750Z,7.84
2017-09-10T03:51:35.772Z,6.82
2017-09-10T03:54:04.026Z,7.14
2017-09-10T03:56:32.330Z,7.94
2017-09-10T03:59:00.590Z,7.00
2017-09-10T04:01:28.839Z,6.62
2017-09-10T04:03:57.122Z,7.14
2017-09-10T04:06:25.370Z,7.04
2017-09-10T04:08:53.658Z,8.00
2017-09-10T04:11:21.918Z,7.98
2017-09-10T04:13:50.199Z,7.46
2017-09-10T04:16:18.450Z,7.36
2017-09-10T04:18:46.755Z,8.16
2017-09-10T04:21:15.006Z,7.22
2017-09-10T04:23:44.222Z,8.46
2017-09-10T04:26:12.993Z,8.94
2017-09-10T04:28:41.253Z,8.20
2017-09-10T04:31:09.510Z,7.66
2017-09-10T04:33:37.786Z,7.60
2017-09-10T04:36:06.046Z,8.96
2017-09-10T04:38:34.338Z,8.14
2017-09-10T04:41:02.590Z,8.18
2017-09-10T04:43:30.842Z,8.50
2017-09-10T04:45:59.118Z,9.14
2017-09-10T04:48:27.378Z,7.68
2017-09-10T04:50:55.668Z,7.98
2017-09-10T04:53:23.925Z,8.16
2017-09-10T04:55:52.176Z,7.92
2017-09-10T04:58:20.470Z,8.42
2017-09-10T05:00:48.731Z,8.94
2017-09-10T05:03:16.990Z,8.56
2017-09-10T05:05:45.271Z,8.72
2017-09-10T05:08:13.528Z,7.72
2017-09-10T05:10:41.814Z,8.32
2017-09-10T05:13:10.069Z,8.96
2017-09-10T05:15:38.359Z,7.68
2017-09-10T05:18:07.246Z,9.12
2017-09-10T05:20:36.562Z,8.00
2017-09-10T05:23:04.818Z,8.20
2017-09-10T05:25:33.657Z,9.12
2017-09-10T05:28:01.938Z,8.52
2017-09-10T05:30:30.194Z,9.02
2017-09-10T05:32:57.713Z,7.50
2017-09-10T05:35:25.987Z,8.42
2017-09-10T05:37:54.239Z,8.36
2017-09-10T05:40:21.772Z,9.16
2017-09-10T05:42:50.022Z,8.42
2017-09-10T05:45:19.238Z,9.32
2017-09-10T05:47:47.527Z,8.12
2017-09-10T05:50:15.783Z,8.20
2017-09-10T05:52:45.359Z,8.14
2017-09-10T05:55:13.607Z,7.86
2017-09-10T05:57:41.864Z,9.12
2017-09-10T06:00:10.143Z,8.80
2017-09-10T06:02:38.395Z,9.08
2017-09-10T06:05:07.595Z,8.26
2017-09-10T06:07:36.863Z,8.90
2017-09-10T06:10:04.395Z,8.70
2017-09-10T06:12:32.722Z,9.10
2017-09-10T06:15:00.992Z,7.82
2017-09-10T06:17:29.242Z,8.60
2017-09-10T06:19:57.532Z,8.88
2017-09-10T06:22:26.726Z,8.66
2017-09-10T06:24:55.014Z,11.14
2017-09-10T06:27:23.259Z,8.50
2017-09-10T06:29:50.786Z,7.46
2017-09-10T06:32:19.051Z,8.08
2017-09-10T06:34:47.298Z,8.28
2017-09-10T06:37:15.598Z,8.64
2017-09-10T06:39:44.958Z,8.32
2017-09-10T06:42:15.199Z,8.32
2017-09-10T06:44:43.454Z,7.68
2017-09-10T06:47:11.707Z,7.88
2017-09-10T06:49:40.002Z,7.78
2017-09-10T06:52:11.379Z,7.70
2017-09-10T06:54:39.667Z,8.98
2017-09-10T06:57:07.146Z,8.74
2017-09-10T06:59:36.550Z,8.58
2017-09-10T07:02:06.517Z,7.70
2017-09-10T07:04:35.993Z,8.72
2017-09-10T07:07:04.258Z,8.72
2017-09-10T07:09:32.514Z,8.20
2017-09-10T07:12:00.802Z,8.06
2017-09-10T07:14:29.087Z,7.40
2017-09-10T07:16:57.330Z,7.42
2017-09-10T07:19:25.623Z,7.36
2017-09-10T07:21:53.870Z,7.24
2017-09-10T07:24:22.168Z,6.94
2017-09-10T07:26:50.421Z,7.82
2017-09-10T07:29:18.702Z,6.22
2017-09-10T07:31:46.979Z,6.70
2017-09-10T07:34:15.239Z,7.88
2017-09-10T07:36:43.511Z,6.64
2017-09-10T07:39:11.763Z,6.00
2017-09-10T07:41:40.055Z,5.92
2017-09-10T07:44:08.322Z,6.24
2017-09-10T07:46:37.171Z,7.28
2017-09-10T07:49:06.660Z,6.16
2017-09-10T07:51:35.794Z,5.50
2017-09-10T07:54:04.063Z,6.58
2017-09-10T07:56:32.331Z,5.92
2017-09-10T07:59:00.619Z,6.38
2017-09-10T08:01:28.868Z,5.38
2017-09-10T08:03:57.177Z,4.80
2017-09-10T08:06:25.449Z,5.82
2017-09-10T08:08:53.708Z,6.06
2017-09-10T08:11:21.996Z,5.78
2017-09-10T08:13:50.279Z,5.02
2017-09-10T08:16:18.551Z,5.00
2017-09-10T08:18:46.847Z,5.10
2017-09-10T08:21:15.106Z,4.72
2017-09-10T08:23:44.120Z,5.38
2017-09-10T08:26:13.152Z,4.82
2017-09-10T08:28:41.399Z,3.80
2017-09-10T08:31:14.634Z,4.14
2017-09-10T08:33:43.962Z,4.12
2017-09-10T08:36:12.247Z,5.44
2017-09-10T08:38:40.503Z,4.68
2017-09-10T08:41:08.790Z,4.20
2017-09-10T08:43:38.147Z,4.82
2017-09-10T08:46:07.747Z,4.66
2017-09-10T08:48:36.007Z,4.00
2017-09-10T08:51:04.258Z,5.32
2017-09-10T08:53:32.535Z,3.86
2017-09-10T08:56:00.791Z,4.20
2017-09-10T08:58:29.083Z,2.56
2017-09-10T09:00:57.335Z,3.78
2017-09-10T09:03:25.592Z,3.46
2017-09-10T09:05:53.881Z,3.46
2017-09-10T09:08:22.127Z,3.40
2017-09-10T09:10:50.374Z,3.30
2017-09-10T09:13:18.658Z,3.28
2017-09-10T09:15:46.939Z,3.40
2017-09-10T09:18:15.188Z,3.20
2017-09-10T09:20:44.474Z,3.18
2017-09-10T09:23:13.123Z,3.32
2017-09-10T09:25:41.371Z,2.94
2017-09-10T09:28:09.652Z,2.96
2017-09-10T09:30:37.919Z,3.06
2017-09-10T09:33:13.213Z,2.96
2017-09-10T09:35:41.475Z,3.52
2017-09-10T09:38:22.254Z,2.88
2017-09-10T09:40:50.502Z,3.08
2017-09-10T09:43:18.762Z,3.58
2017-09-10T09:45:58.020Z,3.04
2017-09-10T09:48:25.508Z,3.38
2017-09-10T09:50:53.856Z,3.56
2017-09-10T09:53:22.150Z,2.58
2017-09-10T09:55:51.367Z,2.78
2017-09-10T09:58:19.618Z,2.88
2017-09-10T10:01:11.379Z,2.48
2017-09-10T10:03:39.672Z,2.80
2017-09-10T10:06:09.879Z,2.72
2017-09-10T10:08:38.167Z,2.40
2017-09-10T10:11:18.800Z,2.68
2017-09-10T10:13:47.087Z,2.84
2017-09-10T10:16:18.643Z,2.80
2017-09-10T10:18:46.928Z,2.70
2017-09-10T10:21:36.675Z,3.20
2017-09-10T10:24:05.661Z,2.70
2017-09-10T10:26:33.951Z,3.04
2017-09-10T10:29:07.984Z,3.10
2017-09-10T10:31:37.243Z,2.62
2017-09-10T10:34:07.814Z,3.18
2017-09-10T10:36:36.106Z,2.54
2017-09-10T10:39:23.346Z,2.30
2017-09-10T10:41:51.612Z,2.90
2017-09-10T10:44:38.919Z,2.36
2017-09-10T10:47:07.171Z,2.62
2017-09-10T10:49:36.511Z,2.50
2017-09-10T10:52:05.597Z,2.74
2017-09-10T10:57:26.470Z,2.68
2017-09-10T10:59:54.744Z,2.58
2017-09-10T11:02:23.039Z,2.22
2017-09-10T11:04:59.303Z,2.86
2017-09-10T11:07:27.601Z,2.87
2017-09-10T11:10:16.723Z,3.00
2017-09-10T11:12:44.813Z,2.68
2017-09-10T11:15:17.686Z,2.70
2017-09-10T11:17:46.019Z,2.60
2017-09-10T11:20:14.928Z,3.34
2017-09-10T11:22:44.615Z,2.48
2017-09-10T11:25:20.495Z,3.20
2017-09-10T11:27:48.783Z,3.00
2017-09-10T11:30:17.040Z,2.80
2017-09-10T11:32:45.282Z,3.46
2017-09-10T11:35:15.584Z,3.04
2017-09-10T11:37:44.698Z,3.22
2017-09-10T11:40:13.665Z,2.94
2017-09-10T11:42:41.951Z,2.84
2017-09-10T11:45:10.199Z,3.20
2017-09-10T11:47:38.487Z,3.18
2017-09-10T11:50:07.746Z,3.10
2017-09-10T11:52:36.418Z,2.90
2017-09-10T11:55:04.671Z,3.00
2017-09-10T11:57:32.956Z,3.50
2017-09-10T12:00:01.203Z,3.22
2017-09-10T12:02:32.418Z,3.20
2017-09-10T12:05:00.686Z,3.00
2017-09-10T12:07:32.210Z,3.64
2017-09-10T12:10:00.490Z,3.62
2017-09-10T12:12:39.004Z,2.96
2017-09-10T12:15:07.295Z,3.54
2017-09-10T12:17:36.975Z,3.40
2017-09-10T12:20:06.318Z,2.68
2017-09-10T12:22:34.630Z,2.98
2017-09-10T12:25:02.881Z,3.26
2017-09-10T12:27:44.488Z,3.04
2017-09-10T12:30:13.153Z,4.08
2017-09-10T12:32:44.874Z,2.90
2017-09-10T12:35:13.170Z,3.76
2017-09-10T12:37:47.706Z,3.30
2017-09-10T12:40:16.007Z,3.28
2017-09-10T12:42:48.006Z,3.10
2017-09-10T12:45:16.327Z,3.08
2017-09-10T12:47:45.503Z,3.00
2017-09-10T12:50:13.754Z,3.20
2017-09-10T12:52:46.130Z,3.74
2017-09-10T12:55:15.107Z,2.80
2017-09-10T12:57:45.402Z,3.02
2017-09-10T13:00:13.899Z,2.88
2017-09-10T13:02:44.151Z,2.50
2017-09-10T13:05:12.435Z,3.22
2017-09-10T13:07:42.145Z,2.78
2017-09-10T13:10:10.391Z,2.44
2017-09-10T13:12:39.591Z,2.78
2017-09-10T13:15:08.191Z,2.96
2017-09-10T13:17:38.390Z,3.00
2017-09-10T13:20:07.519Z,2.34
2017-09-10T13:22:38.915Z,3.90
2017-09-10T13:25:07.539Z,2.34
2017-09-10T13:27:37.883Z,2.40
2017-09-10T13:30:06.179Z,2.42
2017-09-10T13:32:33.674Z,2.76
2017-09-10T13:35:01.931Z,2.84
2017-09-10T13:40:33.495Z,2.60
2017-09-10T13:43:01.787Z,2.22
2017-09-10T13:45:30.040Z,2.62
2017-09-10T13:47:58.291Z,2.68
2017-09-10T13:50:38.146Z,2.72
2017-09-10T13:53:07.567Z,2.34
2017-09-10T13:55:37.746Z,2.06
2017-09-10T13:58:06.375Z,2.68
2017-09-10T14:00:39.709Z,2.30
2017-09-10T14:03:07.995Z,2.43
2017-09-10T14:05:44.594Z,2.62
2017-09-10T14:08:13.271Z,2.38
2017-09-10T14:10:41.529Z,2.90
2017-09-10T14:13:09.806Z,2.32
2017-09-10T14:15:38.070Z,2.22
2017-09-10T14:18:07.637Z,2.80
2017-09-10T14:20:35.948Z,2.46
2017-09-10T14:23:04.219Z,2.80
2017-09-10T14:25:32.470Z,2.48
2017-09-10T14:28:00.758Z,2.82
2017-09-10T14:30:29.052Z,2.72
2017-09-10T14:32:59.278Z,2.64
2017-09-10T14:35:27.547Z,2.30
2017-09-10T14:38:03.175Z,2.36
2017-09-10T14:40:31.423Z,2.40
2017-09-10T14:42:59.679Z,2.82
2017-09-10T14:45:27.959Z,1.96
2017-09-10T14:47:56.348Z,2.54
2017-09-10T14:50:23.851Z,2.30
2017-09-10T14:52:52.103Z,2.44
2017-09-10T14:55:28.079Z,2.60
2017-09-10T14:57:56.370Z,2.40
2017-09-10T15:00:29.520Z,2.40
2017-09-10T15:02:57.807Z,2.86
2017-09-10T15:05:26.082Z,2.76
2017-09-10T15:07:54.342Z,2.92
2017-09-10T15:10:24.531Z,2.82
2017-09-10T15:12:52.828Z,3.26
2017-09-10T15:15:21.079Z,2.24
2017-09-10T15:17:49.352Z,2.86
2017-09-10T15:20:30.146Z,2.96
2017-09-10T15:22:57.630Z,2.78
2017-09-10T15:25:30.835Z,2.38
2017-09-10T15:27:59.082Z,2.46
2017-09-10T15:30:29.309Z,3.00
2017-09-10T15:32:57.576Z,3.40
2017-09-10T15:35:30.053Z,2.50
2017-09-10T15:37:58.359Z,2.98
2017-09-10T15:40:36.743Z,3.04
2017-09-10T15:43:05.676Z,2.58
2017-09-10T15:45:37.518Z,2.62
2017-09-10T15:48:06.759Z,2.90
2017-09-10T15:50:39.211Z,2.90
2017-09-10T15:53:07.515Z,2.74
2017-09-10T15:55:40.196Z,2.70
2017-09-10T15:58:08.453Z,2.88
2017-09-10T16:00:46.976Z,2.38
2017-09-10T16:03:15.247Z,2.76
2017-09-10T16:05:44.533Z,2.92
2017-09-10T16:08:13.233Z,2.28
2017-09-10T16:10:41.495Z,2.62
2017-09-10T16:13:26.627Z,3.00
2017-09-10T16:15:54.874Z,2.90
2017-09-10T16:18:23.338Z,3.40
2017-09-10T16:20:51.592Z,2.92
2017-09-10T16:23:19.892Z,2.80
2017-09-10T16:25:51.866Z,3.36
2017-09-10T16:28:20.159Z,2.78
2017-09-10T16:30:55.602Z,3.12
2017-09-10T16:33:23.902Z,4.06
2017-09-10T16:35:52.154Z,2.40
2017-09-10T16:38:19.678Z,2.76
2017-09-10T16:40:47.971Z,3.18
2017-09-10T16:43:16.235Z,2.78
2017-09-10T16:45:45.351Z,2.98
2017-09-10T16:48:14.289Z,3.34
2017-09-10T16:50:44.638Z,3.12
2017-09-10T16:53:13.334Z,2.82
2017-09-10T16:55:41.581Z,2.40
2017-09-10T16:58:09.864Z,2.90
2017-09-10T17:00:40.978Z,2.70
2017-09-10T17:03:09.266Z,3.12
2017-09-10T17:05:37.546Z,2.90
2017-09-10T17:08:06.787Z,3.16
2017-09-10T17:10:35.744Z,3.64
2017-09-10T17:13:03.994Z,2.62
2017-09-10T17:15:32.283Z,3.16
2017-09-10T17:18:00.543Z,2.90
2017-09-10T17:20:28.831Z,2.80
2017-09-10T17:22:57.090Z,3.52
2017-09-10T17:25:31.280Z,2.68
2017-09-10T17:27:59.527Z,3.64
2017-09-10T17:30:27.811Z,2.60
2017-09-10T17:32:56.062Z,3.38
2017-09-10T17:35:26.355Z,2.60
2017-09-10T17:37:53.886Z,2.94
2017-09-10T17:40:24.074Z,2.88
2017-09-10T17:42:52.338Z,2.78
2017-09-10T17:45:20.623Z,2.54
2017-09-10T17:47:48.891Z,2.80
2017-09-10T17:50:17.183Z,2.58
2017-09-10T17:52:46.387Z,3.22
2017-09-10T17:55:15.263Z,2.80
2017-09-10T17:58:06.584Z,2.60
2017-09-10T18:00:35.488Z,3.04
2017-09-10T18:03:03.948Z,3.24
2017-09-10T18:05:32.203Z,2.80
2017-09-10T18:08:00.490Z,3.10
2017-09-10T18:10:28.739Z,3.06
2017-09-10T18:12:57.039Z,2.82
2017-09-10T18:15:25.334Z,2.86
2017-09-10T18:17:53.579Z,3.20
2017-09-10T18:20:21.838Z,2.92
2017-09-10T18:22:50.119Z,2.64
2017-09-10T18:25:18.370Z,2.86
2017-09-10T18:27:46.687Z,2.98
2017-09-10T18:30:14.967Z,2.86
2017-09-10T18:32:43.756Z,2.80
2017-09-10T18:35:12.019Z,3.12
2017-09-10T18:37:40.316Z,3.02
2017-09-10T18:40:08.583Z,2.66
2017-09-10T18:42:43.353Z,3.10
2017-09-10T18:45:11.598Z,2.90
2017-09-10T18:47:39.926Z,3.28
2017-09-10T18:50:08.178Z,2.68
2017-09-10T18:52:37.239Z,3.44
2017-09-10T18:55:06.830Z,3.12
2017-09-10T18:57:35.136Z,3.26
2017-09-10T19:00:03.393Z,2.86
2017-09-10T19:02:31.650Z,3.62
2017-09-10T19:04:59.943Z,2.98
2017-09-10T19:07:28.243Z,3.36
2017-09-10T19:09:56.512Z,3.36
2017-09-10T19:12:24.765Z,3.04
2017-09-10T19:14:53.059Z,2.86
2017-09-10T19:17:21.316Z,3.04
2017-09-10T19:19:49.575Z,3.28
2017-09-10T19:22:17.863Z,3.06
2017-09-10T19:24:46.131Z,2.80
2017-09-10T19:27:15.171Z,3.90
2017-09-10T19:29:44.259Z,3.10
2017-09-10T19:32:12.547Z,2.80
2017-09-10T19:34:40.798Z,3.54
2017-09-10T19:37:11.616Z,3.26
2017-09-10T19:39:39.903Z,3.08
2017-09-10T19:42:09.698Z,4.00
2017-09-10T19:44:38.061Z,3.54
2017-09-10T19:47:07.399Z,3.38
2017-09-10T19:49:36.312Z,3.10
2017-09-10T19:52:04.588Z,2.90
2017-09-10T19:54:32.834Z,3.84
2017-09-10T19:57:01.118Z,3.16
2017-09-10T19:59:29.370Z,3.46
2017-09-10T20:01:57.655Z,3.10
2017-09-10T20:04:25.908Z,3.08
2017-09-10T20:06:54.162Z,2.94
2017-09-10T20:09:22.438Z,3.46
2017-09-10T20:11:50.695Z,3.74
2017-09-10T20:14:18.976Z,3.04
2017-09-10T20:16:47.225Z,3.44
2017-09-10T20:19:15.879Z,3.20
2017-09-10T20:21:45.005Z,3.34
2017-09-10T20:24:14.174Z,2.84
2017-09-10T20:26:42.459Z,3.22
2017-09-10T20:29:10.750Z,3.80
2017-09-10T20:31:39.015Z,3.16
2017-09-10T20:34:07.271Z,3.06
2017-09-10T20:36:36.408Z,3.68
2017-09-10T20:39:04.694Z,3.92
2017-09-10T20:41:32.203Z,3.64
2017-09-10T20:44:00.503Z,3.54
2017-09-10T20:46:28.750Z,3.00
2017-09-10T20:48:56.995Z,3.50
2017-09-10T20:51:25.293Z,3.36
2017-09-10T20:53:53.552Z,2.86
2017-09-10T20:56:21.806Z,2.90
2017-09-10T20:58:50.104Z,3.38
2017-09-10T21:01:18.358Z,2.62
2017-09-10T21:03:46.643Z,3.00
2017-09-10T21:06:14.934Z,3.40
2017-09-10T21:08:44.052Z,3.30
2017-09-10T21:11:12.307Z,3.36
2017-09-10T21:13:40.554Z,4.02
2017-09-10T21:16:08.844Z,3.38
2017-09-10T21:18:37.094Z,3.32
2017-09-10T21:21:06.579Z,3.24
2017-09-10T21:23:36.464Z,3.20
2017-09-10T21:26:06.485Z,3.58
2017-09-10T21:28:36.478Z,3.42
2017-09-10T21:31:04.772Z,4.18
2017-09-10T21:33:33.029Z,3.98
2017-09-10T21:36:01.287Z,4.78
2017-09-10T21:38:29.562Z,3.74
2017-09-10T21:40:57.858Z,3.64
2017-09-10T21:43:25.343Z,3.44
2017-09-10T21:45:53.591Z,3.24
2017-09-10T21:48:21.871Z,3.60
2017-09-10T21:50:50.158Z,3.90
2017-09-10T21:53:18.407Z,3.10
2017-09-10T21:55:46.652Z,3.26
2017-09-10T21:58:15.007Z,3.50
2017-09-10T22:00:44.374Z,3.64
2017-09-10T22:03:12.634Z,3.62
2017-09-10T22:05:41.760Z,3.30
2017-09-10T22:08:10.042Z,3.52
2017-09-10T22:10:38.291Z,3.10
2017-09-10T22:13:07.652Z,3.28
2017-09-10T22:15:36.979Z,3.48
2017-09-10T22:18:06.315Z,3.16
2017-09-10T22:20:34.571Z,3.82
2017-09-10T22:23:02.823Z,4.12
2017-09-10T22:25:31.112Z,3.02
2017-09-10T22:27:59.371Z,3.84
2017-09-10T22:30:27.643Z,3.80
2017-09-10T22:32:55.918Z,3.48
2017-09-10T22:35:24.199Z,3.80
2017-09-10T22:37:52.443Z,3.46
2017-09-10T22:40:20.723Z,3.20
2017-09-10T22:42:49.007Z,4.46
2017-09-10T22:45:17.311Z,3.10
2017-09-10T22:47:45.567Z,3.60
2017-09-10T22:50:13.810Z,4.26
2017-09-10T22:52:42.101Z,3.30
2017-09-10T22:55:10.346Z,3.82
2017-09-10T22:57:38.626Z,3.12
2017-09-10T23:00:13.333Z,3.04
2017-09-10T23:02:41.624Z,3.82
2017-09-10T23:05:09.879Z,4.64
2017-09-10T23:07:37.362Z,3.10
2017-09-10T23:10:06.638Z,3.40
2017-09-10T23:12:35.581Z,3.40
2017-09-10T23:15:03.874Z,3.10
2017-09-10T23:17:32.125Z,3.62
2017-09-10T23:20:00.378Z,3.20
2017-09-10T23:22:28.662Z,3.60
2017-09-10T23:24:56.939Z,3.78
2017-09-10T23:27:25.218Z,2.96
2017-09-10T23:29:53.471Z,3.50
2017-09-10T23:32:21.766Z,3.06
2017-09-10T23:34:50.015Z,3.28
2017-09-10T23:37:18.314Z,3.30
2017-09-10T23:39:46.567Z,2.90
2017-09-10T23:42:15.146Z,3.26
2017-09-10T23:44:44.180Z,3.60
2017-09-10T23:47:12.435Z,4.18
2017-09-10T23:49:40.714Z,3.76
2017-09-10T23:52:09.010Z,3.88
2017-09-10T23:54:37.262Z,4.48
2017-09-10T23:57:06.056Z,3.72
2017-09-10T23:59:34.364Z,3.82
